Time;durP1;ratioP1;P1;durP2;ratioP2;P2;SDS_P1;SDS_P2;PMS_P1;PMS_P2;Temp;Humidity;BMP_temperature;BMP_pressure;BME280_temperature;BME280_humidity;BME280_pressure;Samples;Min_cycle;Max_cycle;Signal;HPM_P1;HPM_P2
2021/12/28 00:01:12;;;;;;;48.35;21.60;;;3.00;99.90;;;;;;5075609;28;20504;-50
2021/12/28 00:03:41;;;;;;;40.15;22.08;;;3.10;99.90;;;;;;5075130;28;20039;-48
2021/12/28 00:06:08;;;;;;;39.28;22.00;;;3.10;99.90;;;;;;5075575;28;20032;-50
2021/12/28 00:08:34;;;;;;;34.35;20.00;;;3.20;99.90;;;;;;5075098;28;20033;-49
2021/12/28 00:10:59;;;;;;;36.90;20.30;;;3.20;99.90;;;;;;5074744;28;20104;-48
2021/12/28 00:13:26;;;;;;;38.13;21.83;;;3.20;99.90;;;;;;5075216;28;20047;-49
2021/12/28 00:18:21;;;;;;;37.75;20.27;;;3.30;99.90;;;;;;5075231;28;20142;-49
2021/12/28 00:20:51;;;;;;;41.22;21.48;;;3.30;99.90;;;;;;5074558;28;20028;-49
2021/12/28 00:23:24;;;;;;;38.63;21.48;;;3.40;99.90;;;;;;5074772;28;20032;-49
2021/12/28 00:25:51;;;;;;;39.63;21.38;;;3.40;99.90;;;;;;5074819;28;20161;-49
2021/12/28 00:28:18;;;;;;;39.90;21.90;;;3.40;99.90;;;;;;5074473;28;20108;-49
2021/12/28 00:30:44;;;;;;;32.15;20.10;;;3.50;99.90;;;;;;5074712;28;20027;-51
2021/12/28 00:33:11;;;;;;;38.10;21.58;;;3.50;99.90;;;;;;5074744;28;20033;-49
2021/12/28 00:35:42;;;;;;;35.42;19.83;;;3.50;99.90;;;;;;5074469;28;20103;-50
2021/12/28 00:38:10;;;;;;;33.85;19.80;;;3.50;99.90;;;;;;5074471;28;20024;-50
2021/12/28 00:40:37;;;;;;;35.88;20.42;;;3.50;99.90;;;;;;5055583;28;20024;-49
2021/12/28 00:43:04;;;;;;;37.70;20.38;;;3.50;99.90;;;;;;5074210;28;20158;-49
2021/12/28 00:45:29;;;;;;;35.45;19.25;;;3.50;99.90;;;;;;5074418;28;20021;-52
2021/12/28 00:47:55;;;;;;;35.50;19.52;;;3.50;99.90;;;;;;5074327;28;20104;-49
2021/12/28 00:50:23;;;;;;;39.17;21.52;;;3.50;99.90;;;;;;5074265;28;20029;-50
2021/12/28 00:52:49;;;;;;;38.55;20.73;;;3.50;99.90;;;;;;5073905;28;20013;-48
2021/12/28 00:55:17;;;;;;;36.03;20.38;;;3.50;99.90;;;;;;5073977;28;20377;-49
2021/12/28 00:57:43;;;;;;;40.00;19.83;;;3.50;99.90;;;;;;5074157;28;20100;-51
2021/12/28 01:00:12;;;;;;;37.55;19.80;;;3.50;99.90;;;;;;5073854;28;20071;-50
2021/12/28 01:02:38;;;;;;;35.65;19.38;;;3.50;99.90;;;;;;5073684;28;20037;-50
2021/12/28 01:05:05;;;;;;;37.72;19.70;;;3.50;99.90;;;;;;5073583;28;20111;-53
2021/12/28 01:07:30;;;;;;;35.72;19.98;;;3.50;99.90;;;;;;5073283;28;20052;-49
2021/12/28 01:09:56;;;;;;;34.58;19.63;;;3.50;99.90;;;;;;5072939;28;20442;-51
2021/12/28 01:12:22;;;;;;;33.20;19.17;;;3.50;99.90;;;;;;5072835;28;20032;-52
2021/12/28 01:14:47;;;;;;;35.50;18.98;;;3.60;99.90;;;;;;5072621;28;20020;-48
2021/12/28 01:17:13;;;;;;;35.15;19.55;;;3.60;99.90;;;;;;5072781;28;20043;-50
2021/12/28 01:19:39;;;;;;;35.72;19.35;;;3.60;99.90;;;;;;5072452;28;20055;-52
2021/12/28 01:22:05;;;;;;;33.92;19.52;;;3.70;99.90;;;;;;5073131;28;20028;-50
2021/12/28 01:24:31;;;;;;;36.53;20.50;;;3.60;99.90;;;;;;5072615;28;20048;-50
2021/12/28 01:26:57;;;;;;;36.83;19.42;;;3.70;99.90;;;;;;5072502;28;20021;-49
2021/12/28 01:29:23;;;;;;;33.85;19.05;;;3.70;99.90;;;;;;5072262;28;20063;-49
2021/12/28 01:31:49;;;;;;;36.30;19.77;;;3.70;99.90;;;;;;5072253;28;20028;-49
2021/12/28 01:34:14;;;;;;;36.50;20.45;;;3.70;99.90;;;;;;5072213;28;20389;-50
2021/12/28 01:36:40;;;;;;;35.55;20.02;;;3.70;99.90;;;;;;5072526;28;20025;-50
2021/12/28 01:39:07;;;;;;;34.08;20.60;;;3.70;99.90;;;;;;5054353;28;20036;-48
2021/12/28 01:41:33;;;;;;;36.08;19.67;;;3.70;99.90;;;;;;5072316;28;20073;-50
2021/12/28 01:44:03;;;;;;;34.42;19.58;;;3.70;99.90;;;;;;5072481;28;20029;-51
2021/12/28 01:46:28;;;;;;;36.67;19.90;;;3.70;99.90;;;;;;5072603;28;20401;-51
2021/12/28 01:48:54;;;;;;;38.10;19.58;;;3.70;99.90;;;;;;5072381;28;20152;-49
2021/12/28 01:51:22;;;;;;;35.13;19.25;;;3.70;99.90;;;;;;5070949;28;20031;-49
2021/12/28 01:53:53;;;;;;;37.05;20.15;;;3.70;99.90;;;;;;5071963;28;20016;-49
2021/12/28 01:56:21;;;;;;;;;;;3.70;99.90;;;;;;5072681;28;20024;-50
2021/12/28 01:58:47;;;;;;;29.63;17.50;;;3.70;99.90;;;;;;5071955;28;19995;-49
2021/12/28 02:01:13;;;;;;;37.22;20.33;;;3.80;99.90;;;;;;5053846;28;20036;-49
2021/12/28 02:03:41;;;;;;;32.88;19.52;;;3.80;99.90;;;;;;5071749;28;20079;-50
2021/12/28 02:06:08;;;;;;;32.03;19.52;;;3.80;99.90;;;;;;5071823;28;20028;-49
2021/12/28 02:08:34;;;;;;;32.50;19.70;;;3.80;99.90;;;;;;5071871;28;20032;-48
2021/12/28 02:11:01;;;;;;;36.13;19.98;;;3.80;99.90;;;;;;5072132;28;20450;-50
2021/12/28 02:13:27;;;;;;;35.72;20.90;;;3.80;99.90;;;;;;5071917;28;20024;-49
2021/12/28 02:15:54;;;;;;;33.75;20.55;;;3.90;99.90;;;;;;5071968;28;20500;-52
2021/12/28 02:18:21;;;;;;;34.38;19.23;;;3.90;99.90;;;;;;5072116;28;20496;-48
2021/12/28 02:20:49;;;;;;;35.95;20.05;;;3.90;99.90;;;;;;5071608;28;20032;-46
2021/12/28 02:23:15;;;;;;;36.88;20.70;;;3.90;99.90;;;;;;5071632;28;20233;-48
2021/12/28 02:25:42;;;;;;;35.60;20.05;;;3.90;99.90;;;;;;5071992;28;20056;-48
2021/12/28 02:28:09;;;;;;;37.58;20.63;;;3.90;99.90;;;;;;5072309;28;20101;-50
2021/12/28 02:30:37;;;;;;;37.00;19.20;;;3.90;99.90;;;;;;5071889;28;20028;-48
2021/12/28 02:33:03;;;;;;;34.40;20.25;;;3.90;99.90;;;;;;5071510;28;20039;-52
2021/12/28 02:35:29;;;;;;;33.08;19.23;;;3.90;99.90;;;;;;5071851;28;20078;-48
2021/12/28 02:37:55;;;;;;;33.58;19.50;;;3.90;99.90;;;;;;5072125;28;20033;-49
2021/12/28 02:40:29;;;;;;;34.25;19.77;;;3.90;99.90;;;;;;5071824;28;20470;-49
2021/12/28 02:42:57;;;;;;;33.33;20.17;;;4.00;99.90;;;;;;5071842;28;20043;-52
2021/12/28 02:45:29;;;;;;;34.20;19.85;;;3.90;99.90;;;;;;5071908;28;20048;-49
2021/12/28 02:47:56;;;;;;;37.15;20.45;;;4.00;99.90;;;;;;5071980;28;20020;-49
2021/12/28 02:50:25;;;;;;;35.45;19.77;;;4.00;99.90;;;;;;5071732;28;20024;-49
2021/12/28 02:52:51;;;;;;;33.78;19.85;;;4.10;99.90;;;;;;5071288;28;20021;-50
2021/12/28 02:55:21;;;;;;;34.78;20.08;;;4.10;99.90;;;;;;5071710;28;20033;-48
2021/12/28 02:57:53;;;;;;;35.03;19.38;;;4.00;99.90;;;;;;5071678;28;20116;-48
2021/12/28 03:00:39;;;;;;;39.72;20.85;;;4.10;99.90;;;;;;5071756;28;20020;-51
2021/12/28 03:03:17;;;;;;;35.65;19.65;;;4.00;99.90;;;;;;5072798;28;20039;-50
2021/12/28 03:05:44;;;;;;;38.72;20.85;;;4.10;99.90;;;;;;5075722;28;20020;-53
2021/12/28 03:08:11;;;;;;;34.00;19.23;;;4.00;99.90;;;;;;5075283;28;20068;-49
2021/12/28 03:10:38;;;;;;;36.80;19.00;;;4.10;99.90;;;;;;5075431;28;20107;-47
2021/12/28 03:13:05;;;;;;;36.75;20.63;;;4.00;99.90;;;;;;5075332;28;20025;-48
2021/12/28 03:15:31;;;;;;;33.05;19.52;;;4.00;99.90;;;;;;5075336;28;20409;-49
2021/12/28 03:17:57;;;;;;;37.30;21.20;;;4.00;99.90;;;;;;5075235;28;20025;-48
2021/12/28 03:20:23;;;;;;;43.20;21.80;;;4.00;99.90;;;;;;5075221;28;20086;-52
2021/12/28 03:22:49;;;;;;;37.17;21.20;;;4.00;99.90;;;;;;5075123;28;20035;-47
2021/12/28 03:25:14;;;;;;;37.83;20.98;;;4.00;99.90;;;;;;5074744;28;20381;-52
2021/12/28 03:27:42;;;;;;;41.83;21.42;;;4.00;99.90;;;;;;5075347;28;20024;-48
2021/12/28 03:30:10;;;;;;;36.78;20.05;;;4.00;99.90;;;;;;5074861;28;20065;-49
2021/12/28 03:32:36;;;;;;;35.85;20.17;;;4.00;99.90;;;;;;5075299;28;20016;-50
2021/12/28 03:35:04;;;;;;;36.22;20.40;;;4.00;99.90;;;;;;5075239;28;20025;-49
2021/12/28 03:37:31;;;;;;;38.38;20.35;;;4.00;99.90;;;;;;5074592;28;20020;-51
2021/12/28 03:39:57;;;;;;;40.47;22.05;;;4.00;99.90;;;;;;5074631;28;20111;-50
2021/12/28 03:42:23;;;;;;;40.97;20.40;;;4.00;99.90;;;;;;5056653;28;20111;-50
2021/12/28 03:44:49;;;;;;;35.67;20.40;;;4.00;99.90;;;;;;5074466;28;20067;-52
2021/12/28 03:47:14;;;;;;;39.55;21.40;;;4.00;99.90;;;;;;5074893;28;20384;-51
2021/12/28 03:49:40;;;;;;;34.78;21.40;;;4.00;99.90;;;;;;5074542;28;20450;-53
2021/12/28 03:52:06;;;;;;;40.08;21.73;;;4.00;99.90;;;;;;5074305;28;20028;-48
2021/12/28 03:54:33;;;;;;;35.13;19.90;;;4.00;99.90;;;;;;5074809;28;20028;-49
2021/12/28 03:56:58;;;;;;;36.90;20.67;;;4.00;99.90;;;;;;5075216;28;20033;-54
2021/12/28 03:59:24;;;;;;;37.40;20.67;;;4.00;99.90;;;;;;5074459;28;20142;-50
2021/12/28 04:01:50;;;;;;;37.95;21.63;;;4.00;99.90;;;;;;5074213;28;20047;-51
2021/12/28 04:04:16;;;;;;;40.83;22.85;;;4.00;99.90;;;;;;5074304;28;20500;-52
2021/12/28 04:06:41;;;;;;;38.13;20.75;;;4.00;99.90;;;;;;5074169;28;20028;-50
2021/12/28 04:09:11;;;;;;;37.72;21.10;;;4.10;99.90;;;;;;5073822;28;20393;-53
2021/12/28 04:11:36;;;;;;;40.00;21.38;;;4.10;99.90;;;;;;5074384;28;20020;-50
2021/12/28 04:14:04;;;;;;;40.58;21.35;;;4.10;99.90;;;;;;5072944;28;20105;-51
2021/12/28 04:16:31;;;;;;;38.50;21.60;;;4.10;99.90;;;;;;5074122;28;20043;-50
2021/12/28 04:18:58;;;;;;;41.47;22.42;;;4.10;99.90;;;;;;5074215;28;20086;-52
2021/12/28 04:21:24;;;;;;;37.65;20.77;;;4.00;99.90;;;;;;5074078;28;20415;-49
2021/12/28 04:23:50;;;;;;;38.17;21.25;;;4.10;99.90;;;;;;5073811;28;20043;-50
2021/12/28 04:26:17;;;;;;;36.88;20.90;;;4.10;99.90;;;;;;5073612;28;20032;-51
2021/12/28 04:28:42;;;;;;;36.20;20.52;;;4.10;99.90;;;;;;5073676;28;20032;-48
2021/12/28 04:31:08;;;;;;;44.33;21.73;;;4.10;99.90;;;;;;5073808;28;20021;-48
2021/12/28 04:33:37;;;;;;;40.58;21.52;;;4.10;99.90;;;;;;5073706;28;20035;-52
2021/12/28 04:36:14;;;;;;;40.67;22.02;;;4.10;99.90;;;;;;5073277;28;20056;-48
2021/12/28 04:38:41;;;;;;;42.25;22.45;;;4.10;99.90;;;;;;5073722;28;20040;-48
2021/12/28 04:41:08;;;;;;;36.25;21.58;;;4.10;99.90;;;;;;5073343;28;20016;-49
2021/12/28 04:43:33;;;;;;;38.58;21.13;;;4.10;99.90;;;;;;5073525;28;20081;-52
2021/12/28 04:45:59;;;;;;;40.55;22.92;;;4.10;99.90;;;;;;5073734;28;20020;-48
2021/12/28 04:48:25;;;;;;;38.75;21.98;;;4.10;99.90;;;;;;5073596;28;20032;-49
2021/12/28 04:50:51;;;;;;;39.17;21.08;;;4.10;99.90;;;;;;5073447;28;20468;-51
2021/12/28 04:53:17;;;;;;;37.25;21.40;;;4.10;99.90;;;;;;5073681;28;20021;-49
2021/12/28 04:55:45;;;;;;;38.05;21.98;;;4.10;99.90;;;;;;5073541;28;20024;-49
2021/12/28 04:58:12;;;;;;;40.78;21.38;;;4.10;99.90;;;;;;5073354;28;20392;-48
2021/12/28 05:00:38;;;;;;;38.42;21.02;;;4.10;99.90;;;;;;5073014;28;20043;-49
2021/12/28 05:03:05;;;;;;;38.97;21.10;;;4.10;99.90;;;;;;5087161;22;20037;-52
2021/12/28 05:05:31;;;;;;;37.35;21.23;;;4.10;99.90;;;;;;5073848;28;20023;-54
2021/12/28 05:07:57;;;;;;;39.80;21.50;;;4.10;99.90;;;;;;5073713;28;20090;-53
2021/12/28 05:10:23;;;;;;;40.85;20.35;;;4.10;99.90;;;;;;5074233;28;20474;-54
2021/12/28 05:12:50;;;;;;;38.45;22.02;;;4.10;99.90;;;;;;5073763;28;20078;-54
2021/12/28 05:15:17;;;;;;;41.58;21.42;;;4.20;99.90;;;;;;5074077;28;20025;-55
2021/12/28 05:17:42;;;;;;;37.78;21.30;;;4.10;99.90;;;;;;5073862;28;20016;-51
2021/12/28 05:20:08;;;;;;;38.65;22.50;;;4.10;99.90;;;;;;5073976;28;20025;-53
2021/12/28 05:22:34;;;;;;;40.47;22.65;;;4.10;99.90;;;;;;5073562;28;20081;-52
2021/12/28 05:25:00;;;;;;;36.92;21.77;;;4.20;99.90;;;;;;5073714;28;20017;-57
2021/12/28 05:27:25;;;;;;;38.45;22.08;;;4.10;99.90;;;;;;5073890;28;20063;-56
2021/12/28 05:29:51;;;;;;;37.65;22.52;;;4.20;99.90;;;;;;5073517;28;20033;-52
2021/12/28 05:32:17;;;;;;;40.10;21.63;;;4.20;99.90;;;;;;5073647;28;20089;-55
2021/12/28 05:34:43;;;;;;;40.05;22.02;;;4.30;99.90;;;;;;5073621;28;20040;-55
2021/12/28 05:37:08;;;;;;;37.35;21.88;;;4.20;99.90;;;;;;5073678;28;20021;-55
2021/12/28 05:39:34;;;;;;;36.85;21.38;;;4.30;99.90;;;;;;5073642;28;20036;-51
2021/12/28 05:42:00;;;;;;;37.97;21.27;;;4.30;99.90;;;;;;5073451;28;20020;-54
2021/12/28 05:44:25;;;;;;;45.47;22.30;;;4.30;99.90;;;;;;5073772;28;20068;-53
2021/12/28 05:46:52;;;;;;;37.15;20.42;;;4.20;99.90;;;;;;5073482;28;20439;-52
2021/12/28 05:49:17;;;;;;;37.72;21.45;;;4.20;99.90;;;;;;5073362;28;20058;-54
2021/12/28 05:51:43;;;;;;;38.08;22.67;;;4.30;99.90;;;;;;5074052;28;20024;-52
2021/12/28 05:54:09;;;;;;;37.45;21.02;;;4.20;99.90;;;;;;5073284;28;20107;-56
2021/12/28 05:56:34;;;;;;;38.13;21.42;;;4.30;99.90;;;;;;5073094;28;20025;-54
2021/12/28 05:59:00;;;;;;;38.95;21.83;;;4.20;99.90;;;;;;5073266;28;20028;-55
2021/12/28 06:01:26;;;;;;;40.92;22.60;;;4.30;99.90;;;;;;5072812;28;20028;-54
2021/12/28 06:03:51;;;;;;;39.90;21.73;;;4.30;99.90;;;;;;5073140;28;20058;-52
2021/12/28 06:06:17;;;;;;;36.08;20.88;;;4.30;99.90;;;;;;5073472;28;20028;-52
2021/12/28 06:08:42;;;;;;;41.05;21.98;;;4.40;99.90;;;;;;5073062;28;20029;-52
2021/12/28 06:11:12;;;;;;;39.33;22.10;;;4.30;99.90;;;;;;5073786;28;20108;-58
2021/12/28 06:13:40;;;;;;;35.05;20.33;;;4.30;99.90;;;;;;5073517;28;20439;-57
2021/12/28 06:16:06;;;;;;;38.20;21.20;;;4.30;99.90;;;;;;5073363;28;20103;-54
2021/12/28 06:18:31;;;;;;;35.67;22.05;;;4.30;99.90;;;;;;5072925;28;20473;-54
2021/12/28 06:20:57;;;;;;;36.30;20.05;;;4.20;99.90;;;;;;5073012;28;20078;-54
2021/12/28 06:23:22;;;;;;;34.72;20.75;;;4.20;99.90;;;;;;5073154;28;20389;-55
2021/12/28 06:25:48;;;;;;;37.05;20.65;;;4.30;99.90;;;;;;5054613;28;20070;-51
2021/12/28 06:28:14;;;;;;;38.80;21.05;;;4.20;99.90;;;;;;5072959;28;20028;-54
2021/12/28 06:30:39;;;;;;;39.28;21.23;;;4.20;99.90;;;;;;5072739;28;20020;-54
2021/12/28 06:33:05;;;;;;;35.38;20.63;;;4.10;99.90;;;;;;5072888;28;20353;-57
2021/12/28 06:35:31;;;;;;;37.97;21.77;;;4.10;99.90;;;;;;5072581;28;20451;-56
2021/12/28 06:37:57;;;;;;;37.70;20.52;;;4.10;99.90;;;;;;5076151;28;20025;-54
2021/12/28 06:40:22;;;;;;;42.40;21.42;;;4.00;99.90;;;;;;5079072;28;20098;-54
2021/12/28 06:42:48;;;;;;;37.53;21.77;;;4.00;99.90;;;;;;5078925;28;20025;-56
2021/12/28 06:45:13;;;;;;;41.75;21.27;;;3.90;99.90;;;;;;5079433;28;20052;-57
2021/12/28 06:47:39;;;;;;;34.85;19.45;;;4.00;99.90;;;;;;5078911;28;20450;-53
2021/12/28 06:50:06;;;;;;;32.63;19.10;;;3.90;99.90;;;;;;5078768;28;20029;-54
2021/12/28 06:52:33;;;;;;;37.20;22.00;;;3.80;99.90;;;;;;5078721;28;20119;-56
2021/12/28 06:54:59;;;;;;;41.17;22.23;;;3.90;99.90;;;;;;5078998;28;20378;-58
2021/12/28 06:57:25;;;;;;;41.40;20.30;;;3.80;99.90;;;;;;5078924;28;20028;-57
2021/12/28 06:59:50;;;;;;;38.08;20.20;;;3.70;99.90;;;;;;5078994;28;20105;-54
2021/12/28 07:02:17;;;;;;;37.00;21.05;;;3.70;99.90;;;;;;5060611;28;20055;-56
2021/12/28 07:04:44;;;;;;;37.75;20.00;;;3.70;99.90;;;;;;5078611;28;20032;-58
2021/12/28 07:07:11;;;;;;;37.55;21.27;;;3.70;99.90;;;;;;5079199;28;20378;-55
2021/12/28 07:09:37;;;;;;;37.08;20.23;;;3.70;99.90;;;;;;5078535;28;20017;-58
2021/12/28 07:12:04;;;;;;;38.92;21.13;;;3.60;99.90;;;;;;5078160;28;20028;-56
2021/12/28 07:14:30;;;;;;;42.13;20.42;;;3.60;99.90;;;;;;5059865;28;20020;-56
2021/12/28 07:16:57;;;;;;;42.35;22.13;;;3.60;99.90;;;;;;5077968;28;20070;-56
2021/12/28 07:19:23;;;;;;;37.63;20.52;;;3.50;99.90;;;;;;5077978;28;20370;-57
2021/12/28 07:21:49;;;;;;;39.42;20.83;;;3.50;99.90;;;;;;5077907;28;20044;-57
2021/12/28 07:24:14;;;;;;;35.10;21.10;;;3.50;99.90;;;;;;5078487;28;20440;-55
2021/12/28 07:26:40;;;;;;;42.55;21.90;;;3.50;99.90;;;;;;5078080;28;20444;-54
2021/12/28 07:29:06;;;;;;;37.08;20.15;;;3.50;99.90;;;;;;5078256;28;20431;-56
2021/12/28 07:31:32;;;;;;;44.67;22.20;;;3.50;99.90;;;;;;5078516;28;20354;-57
2021/12/28 07:33:58;;;;;;;40.95;21.30;;;3.50;99.90;;;;;;5078951;28;20017;-55
2021/12/28 07:36:24;;;;;;;39.15;22.17;;;3.50;99.90;;;;;;5078125;28;20439;-56
2021/12/28 07:38:50;;;;;;;37.75;21.45;;;3.60;99.90;;;;;;5077795;28;20449;-56
2021/12/28 07:41:16;;;;;;;38.78;21.23;;;3.60;99.90;;;;;;5077985;28;20089;-55
2021/12/28 07:43:42;;;;;;;38.75;21.73;;;3.60;99.90;;;;;;5078003;28;20024;-56
2021/12/28 07:46:08;;;;;;;38.38;21.25;;;3.70;99.90;;;;;;5059811;28;20032;-54
2021/12/28 07:48:33;;;;;;;39.85;21.85;;;3.80;99.90;;;;;;5077608;28;20029;-56
2021/12/28 07:50:59;;;;;;;37.55;20.95;;;3.80;99.90;;;;;;5074766;28;20393;-56
2021/12/28 07:53:25;;;;;;;42.72;21.13;;;3.90;99.90;;;;;;5075158;28;20040;-56
2021/12/28 07:55:51;;;;;;;39.55;21.52;;;3.90;99.90;;;;;;5056752;28;20028;-55
2021/12/28 07:58:17;;;;;;;39.13;22.30;;;3.80;99.90;;;;;;5075063;28;20078;-55
2021/12/28 08:00:42;;;;;;;34.45;20.45;;;3.90;99.90;;;;;;5074769;28;20112;-54
2021/12/28 08:03:08;;;;;;;40.95;20.95;;;3.80;99.90;;;;;;5074880;28;20051;-57
2021/12/28 08:05:35;;;;;;;40.95;20.52;;;3.80;99.90;;;;;;5074635;28;20054;-56
2021/12/28 08:08:02;;;;;;;40.22;20.98;;;3.90;99.90;;;;;;5056838;28;20480;-55
2021/12/28 08:10:28;;;;;;;38.53;21.13;;;4.00;99.90;;;;;;5075195;28;20351;-54
2021/12/28 08:12:54;;;;;;;38.25;21.98;;;4.00;99.90;;;;;;5074756;28;20132;-54
2021/12/28 08:15:21;;;;;;;40.05;21.23;;;4.00;99.90;;;;;;5074026;28;20016;-55
2021/12/28 08:17:47;;;;;;;38.15;19.88;;;4.00;99.90;;;;;;5073553;28;20028;-55
2021/12/28 08:20:14;;;;;;;38.45;19.95;;;4.00;99.90;;;;;;5073648;28;20473;-54
2021/12/28 08:22:41;;;;;;;38.45;20.42;;;4.00;99.90;;;;;;5075692;28;20380;-54
2021/12/28 08:25:09;;;;;;;33.03;19.33;;;4.00;99.90;;;;;;5075196;28;20031;-56
2021/12/28 08:27:34;;;;;;;36.53;19.13;;;4.00;99.90;;;;;;5074685;28;20056;-55
2021/12/28 08:30:00;;;;;;;36.45;19.58;;;4.00;99.90;;;;;;5074948;28;20542;-54
2021/12/28 08:32:26;;;;;;;40.80;21.52;;;4.00;99.90;;;;;;5074611;28;20029;-54
2021/12/28 08:34:52;;;;;;;39.47;21.00;;;4.00;99.90;;;;;;5074912;28;20078;-54
2021/12/28 08:37:17;;;;;;;36.45;20.25;;;4.00;99.90;;;;;;5074722;28;20020;-54
2021/12/28 08:39:43;;;;;;;36.38;19.15;;;4.10;99.90;;;;;;5074748;28;20034;-56
2021/12/28 08:42:09;;;;;;;33.75;19.77;;;4.20;99.90;;;;;;5079116;28;20068;-54
2021/12/28 08:44:35;;;;;;;39.83;20.55;;;4.30;99.90;;;;;;5079592;28;20378;-55
2021/12/28 08:47:01;;;;;;;37.03;19.80;;;4.40;99.90;;;;;;5076676;28;20029;-54
2021/12/28 08:49:27;;;;;;;35.17;19.92;;;4.50;99.90;;;;;;5074412;28;20457;-55
2021/12/28 08:51:53;;;;;;;36.33;19.20;;;4.50;99.90;;;;;;5074207;28;20029;-55
2021/12/28 08:54:19;;;;;;;38.83;20.05;;;4.50;99.90;;;;;;5074350;28;20129;-57
2021/12/28 08:56:46;;;;;;;35.10;18.45;;;4.60;99.90;;;;;;5073870;28;20068;-55
2021/12/28 08:59:13;;;;;;;34.17;18.55;;;4.60;99.90;;;;;;5073703;28;20085;-55
2021/12/28 09:01:39;;;;;;;34.17;18.88;;;4.60;99.90;;;;;;5073312;28;20123;-51
2021/12/28 09:04:05;;;;;;;35.95;17.90;;;4.60;99.90;;;;;;5073609;28;20060;-52
2021/12/28 09:06:30;;;;;;;30.38;18.42;;;4.60;99.90;;;;;;5075281;28;20035;-52
2021/12/28 09:08:56;;;;;;;33.88;17.83;;;4.60;99.90;;;;;;5077242;28;20063;-52
2021/12/28 09:11:21;;;;;;;38.47;19.90;;;4.60;99.90;;;;;;5077601;28;20532;-52
2021/12/28 09:13:47;;;;;;;35.20;18.63;;;4.60;99.90;;;;;;5078481;28;20333;-54
2021/12/28 09:16:13;;;;;;;32.53;18.30;;;4.60;99.90;;;;;;5078065;28;20020;-51
2021/12/28 09:18:40;;;;;;;33.55;18.52;;;4.60;99.90;;;;;;5077752;28;20055;-55
2021/12/28 09:21:05;;;;;;;31.88;18.52;;;4.60;99.90;;;;;;5073509;28;21685;-55
2021/12/28 09:23:31;;;;;;;36.75;18.50;;;4.70;99.90;;;;;;5073163;28;20021;-56
2021/12/28 09:25:57;;;;;;;32.67;17.70;;;4.60;99.90;;;;;;5073436;28;20083;-53
2021/12/28 09:28:23;;;;;;;37.78;18.85;;;4.60;99.90;;;;;;5072836;28;20029;-56
2021/12/28 09:30:49;;;;;;;39.33;19.73;;;4.70;99.90;;;;;;5072555;28;20025;-53
2021/12/28 09:33:15;;;;;;;40.42;18.98;;;4.70;99.90;;;;;;5072772;28;20082;-55
2021/12/28 09:35:41;;;;;;;32.08;18.35;;;4.80;99.90;;;;;;5055482;28;20119;-58
2021/12/28 09:38:07;;;;;;;35.00;18.13;;;4.80;99.90;;;;;;5072982;28;20060;-56
2021/12/28 09:40:34;;;;;;;40.97;18.25;;;4.80;99.90;;;;;;5072996;28;20103;-54
2021/12/28 09:43:05;;;;;;;33.75;17.75;;;4.80;99.90;;;;;;5072895;28;20182;-57
2021/12/28 09:45:31;;;;;;;38.30;17.97;;;4.80;99.90;;;;;;5055129;28;20542;-55
2021/12/28 09:47:57;;;;;;;32.78;18.27;;;4.80;99.90;;;;;;5072876;28;20031;-52
2021/12/28 09:50:23;;;;;;;36.47;19.65;;;4.70;99.90;;;;;;5072663;28;20419;-56
2021/12/28 09:52:51;;;;;;;34.72;17.42;;;4.70;99.90;;;;;;5072523;28;20104;-56
2021/12/28 09:55:20;;;;;;;35.10;18.05;;;4.70;99.90;;;;;;5072537;28;20036;-54
2021/12/28 09:57:46;;;;;;;31.67;17.63;;;4.70;99.90;;;;;;5072458;28;20045;-53
2021/12/28 10:00:12;;;;;;;33.40;17.55;;;4.70;99.90;;;;;;5072625;28;20444;-54
2021/12/28 10:02:38;;;;;;;32.75;17.58;;;4.70;99.90;;;;;;5054345;28;20029;-57
2021/12/28 10:05:10;;;;;;;37.78;18.60;;;4.80;99.90;;;;;;5072655;28;20032;-54
2021/12/28 10:07:48;;;;;;;37.78;19.00;;;4.90;99.90;;;;;;5072811;28;20047;-55
2021/12/28 10:10:15;;;;;;;34.88;18.40;;;4.90;99.90;;;;;;5073299;28;20052;-54
2021/12/28 10:12:48;;;;;;;38.35;19.35;;;5.10;99.90;;;;;;5071960;28;20115;-54
2021/12/28 10:15:20;;;;;;;32.30;16.85;;;5.10;99.90;;;;;;5054694;28;20381;-58
2021/12/28 10:17:49;;;;;;;41.13;17.73;;;5.20;99.90;;;;;;5072313;28;20016;-57
2021/12/28 10:20:47;;;;;;;35.70;18.73;;;5.30;99.90;;;;;;5072140;28;20032;-58
2021/12/28 10:23:19;;;;;;;38.03;17.42;;;5.40;99.90;;;;;;5058922;28;20044;-57
2021/12/28 10:25:54;;;;;;;36.58;18.23;;;5.40;99.90;;;;;;5072042;28;20028;-57
2021/12/28 10:28:31;;;;;;;33.65;17.83;;;5.50;99.90;;;;;;5072056;28;20029;-57
2021/12/28 10:31:06;;;;;;;31.30;17.27;;;5.50;99.90;;;;;;5072429;28;20028;-55
2021/12/28 10:33:36;;;;;;;29.05;16.73;;;5.60;99.90;;;;;;5072677;28;20027;-55
2021/12/28 10:36:08;;;;;;;37.37;17.53;;;5.60;99.90;;;;;;5072248;28;20435;-57
2021/12/28 10:38:36;;;;;;;32.92;18.00;;;5.60;99.90;;;;;;5072421;28;20444;-56
2021/12/28 10:41:10;;;;;;;35.40;18.23;;;5.60;99.90;;;;;;5072201;28;20032;-59
2021/12/28 10:43:39;;;;;;;32.75;18.05;;;5.60;99.90;;;;;;5072407;28;20025;-55
2021/12/28 10:46:08;;;;;;;28.67;16.35;;;5.70;99.90;;;;;;5072192;28;20070;-56
2021/12/28 10:48:38;;;;;;;34.88;17.70;;;5.70;99.90;;;;;;5072245;28;20033;-59
2021/12/28 10:51:08;;;;;;;39.28;19.85;;;5.70;99.90;;;;;;5072114;28;20031;-57
2021/12/28 10:56:23;;;;;;;40.53;18.80;;;5.80;99.90;;;;;;5072059;28;20370;-56
2021/12/28 10:58:50;;;;;;;34.72;18.08;;;5.70;99.90;;;;;;5072086;28;20103;-54
2021/12/28 11:01:19;;;;;;;34.22;18.70;;;5.70;99.90;;;;;;5072474;28;20028;-57
2021/12/28 11:04:08;;;;;;;28.80;15.75;;;5.70;99.90;;;;;;5073437;28;20040;-57
2021/12/28 11:06:40;;;;;;;34.92;17.90;;;5.70;99.90;;;;;;5083965;22;20067;-49
2021/12/28 11:09:08;;;;;;;31.88;16.83;;;5.70;99.90;;;;;;5073124;28;20029;-49
2021/12/28 11:11:35;;;;;;;29.95;15.98;;;5.70;99.90;;;;;;5072683;28;20025;-50
2021/12/28 11:14:04;;;;;;;35.13;16.83;;;5.70;99.90;;;;;;5072421;28;20481;-49
2021/12/28 11:16:32;;;;;;;34.20;16.55;;;5.70;99.90;;;;;;5072495;28;20021;-49
2021/12/28 11:19:00;;;;;;;31.48;16.48;;;5.70;99.90;;;;;;5072578;28;20112;-48
2021/12/28 11:21:32;;;;;;;31.63;17.38;;;5.60;99.90;;;;;;5072331;28;20028;-49
2021/12/28 11:24:04;;;;;;;33.90;17.42;;;5.60;99.90;;;;;;5073669;28;20029;-49
2021/12/28 11:26:31;;;;;;;32.60;17.63;;;5.60;99.90;;;;;;5076232;28;20051;-50
2021/12/28 11:29:02;;;;;;;29.08;16.55;;;5.70;99.90;;;;;;5076343;28;20028;-49
2021/12/28 11:31:50;;;;;;;32.22;17.63;;;5.70;99.90;;;;;;5075874;28;20439;-48
2021/12/28 11:34:21;;;;;;;36.75;16.33;;;5.80;99.90;;;;;;5076054;28;20086;-48
2021/12/28 11:36:56;;;;;;;32.60;16.67;;;5.80;99.90;;;;;;5076316;28;20024;-52
2021/12/28 11:39:26;;;;;;;28.48;15.60;;;5.80;99.90;;;;;;5076058;28;20024;-47
2021/12/28 11:41:53;;;;;;;37.28;16.98;;;5.90;99.90;;;;;;5076062;28;20056;-49
2021/12/28 11:44:20;;;;;;;30.60;17.55;;;5.80;99.90;;;;;;5075869;28;20033;-50
2021/12/28 11:46:46;;;;;;;33.30;17.00;;;5.90;99.90;;;;;;5076170;28;20032;-49
2021/12/28 11:49:15;;;;;;;35.67;16.77;;;5.90;99.90;;;;;;5075933;28;20024;-48
2021/12/28 11:51:44;;;;;;;31.08;16.25;;;6.00;99.90;;;;;;5075818;28;20036;-49
2021/12/28 11:54:12;;;;;;;32.42;15.90;;;6.00;99.90;;;;;;5075600;28;20074;-50
2021/12/28 11:56:41;;;;;;;36.10;16.70;;;6.00;99.90;;;;;;5075849;28;20054;-51
2021/12/28 11:59:07;;;;;;;33.13;15.65;;;5.90;99.90;;;;;;5075857;28;20025;-49
2021/12/28 12:01:45;;;;;;;36.92;16.63;;;5.90;99.90;;;;;;5075676;28;20039;-47
2021/12/28 12:04:29;;;;;;;34.47;16.27;;;5.80;99.90;;;;;;5075762;28;20020;-49
2021/12/28 12:07:13;;;;;;;35.35;15.73;;;5.80;99.90;;;;;;5075225;28;20032;-49
2021/12/28 12:09:51;;;;;;;33.30;17.90;;;5.80;99.90;;;;;;5075494;28;20381;-50
2021/12/28 12:12:23;;;;;;;34.65;16.33;;;5.80;99.90;;;;;;5075380;28;20035;-48
2021/12/28 12:14:56;;;;;;;29.45;15.75;;;5.80;99.90;;;;;;5073817;28;20111;-49
2021/12/28 12:17:28;;;;;;;36.30;16.20;;;5.80;99.90;;;;;;5075402;28;20029;-49
2021/12/28 12:20:03;;;;;;;29.13;16.20;;;5.90;99.90;;;;;;5075251;28;20048;-51
2021/12/28 12:22:32;;;;;;;36.92;16.38;;;6.00;99.90;;;;;;5075080;28;20028;-50
2021/12/28 12:24:59;;;;;;;29.73;17.42;;;6.10;99.90;;;;;;5074894;28;20493;-54
2021/12/28 12:27:48;;;;;;;32.97;15.50;;;6.10;99.90;;;;;;5075011;28;20032;-49
2021/12/28 12:30:23;;;;;;;31.15;15.50;;;6.10;99.90;;;;;;5075159;28;20024;-49
2021/12/28 12:32:58;;;;;;;47.05;19.52;;;6.10;99.90;;;;;;5056834;28;20029;-50
2021/12/28 12:35:30;;;;;;;37.67;16.52;;;6.20;99.90;;;;;;5074165;28;20024;-52
2021/12/28 12:38:03;;;;;;;30.20;14.70;;;6.20;99.90;;;;;;5074854;28;20021;-53
2021/12/28 12:40:54;;;;;;;28.67;14.57;;;6.20;99.90;;;;;;5057210;28;20036;-53
2021/12/28 12:43:21;;;;;;;27.97;13.63;;;6.20;99.90;;;;;;5074956;28;20030;-51
2021/12/28 12:45:50;;;;;;;25.67;14.55;;;6.20;99.90;;;;;;5074722;28;20133;-49